sensor_id;sensor_type;location;lat;lon;timestamp;P1;durP1;ratioP1;P2;durP2;ratioP2
45344;SDS011;31078;48.304;11.896;2022-12-31T00:01:06;2.17;;;1.00;;
45344;SDS011;31078;48.304;11.896;2022-12-31T00:03:34;1.35;;;0.80;;
45344;SDS011;31078;48.304;11.896;2022-12-31T00:06:01;3.13;;;0.90;;
45344;SDS011;31078;48.304;11.896;2022-12-31T00:08:37;1.67;;;0.90;;
45344;SDS011;31078;48.304;11.896;2022-12-31T00:11:05;1.00;;;0.57;;
45344;SDS011;31078;48.304;11.896;2022-12-31T00:13:32;0.73;;;0.60;;
45344;SDS011;31078;48.304;11.896;2022-12-31T00:16:04;1.48;;;0.55;;
45344;SDS011;31078;48.304;11.896;2022-12-31T00:18:31;1.48;;;0.40;;
45344;SDS011;31078;48.304;11.896;2022-12-31T00:20:58;0.73;;;0.43;;
45344;SDS011;31078;48.304;11.896;2022-12-31T00:23:26;0.82;;;0.40;;
45344;SDS011;31078;48.304;11.896;2022-12-31T00:25:52;1.08;;;0.50;;
45344;SDS011;31078;48.304;11.896;2022-12-31T00:28:22;0.98;;;0.40;;
45344;SDS011;31078;48.304;11.896;2022-12-31T00:30:49;0.98;;;0.40;;
45344;SDS011;31078;48.304;11.896;2022-12-31T00:33:15;0.85;;;0.52;;
45344;SDS011;31078;48.304;11.896;2022-12-31T00:35:42;1.27;;;0.68;;
45344;SDS011;31078;48.304;11.896;2022-12-31T00:38:08;1.58;;;0.60;;
45344;SDS011;31078;48.304;11.896;2022-12-31T00:40:35;1.17;;;0.38;;
45344;SDS011;31078;48.304;11.896;2022-12-31T00:43:01;1.02;;;0.60;;
45344;SDS011;31078;48.304;11.896;2022-12-31T00:45:29;0.45;;;0.43;;
45344;SDS011;31078;48.304;11.896;2022-12-31T00:47:55;0.65;;;0.50;;
45344;SDS011;31078;48.304;11.896;2022-12-31T00:50:22;0.50;;;0.40;;
45344;SDS011;31078;48.304;11.896;2022-12-31T00:52:48;1.85;;;0.43;;
45344;SDS011;31078;48.304;11.896;2022-12-31T00:55:15;1.20;;;0.32;;
45344;SDS011;31078;48.304;11.896;2022-12-31T00:57:41;0.60;;;0.40;;
45344;SDS011;31078;48.304;11.896;2022-12-31T01:00:11;0.43;;;0.30;;
45344;SDS011;31078;48.304;11.896;2022-12-31T01:02:39;1.95;;;0.40;;
45344;SDS011;31078;48.304;11.896;2022-12-31T01:05:06;0.52;;;0.25;;
45344;SDS011;31078;48.304;11.896;2022-12-31T01:07:32;2.25;;;0.40;;
45344;SDS011;31078;48.304;11.896;2022-12-31T01:09:59;0.45;;;0.30;;
45344;SDS011;31078;48.304;11.896;2022-12-31T01:12:25;0.52;;;0.20;;
45344;SDS011;31078;48.304;11.896;2022-12-31T01:14:52;3.75;;;0.38;;
45344;SDS011;31078;48.304;11.896;2022-12-31T01:17:18;0.52;;;0.30;;
45344;SDS011;31078;48.304;11.896;2022-12-31T01:19:46;0.52;;;0.20;;
45344;SDS011;31078;48.304;11.896;2022-12-31T01:22:12;0.20;;;0.20;;
45344;SDS011;31078;48.304;11.896;2022-12-31T01:24:40;0.30;;;0.20;;
45344;SDS011;31078;48.304;11.896;2022-12-31T01:27:06;0.50;;;0.22;;
45344;SDS011;31078;48.304;11.896;2022-12-31T01:29:34;1.80;;;0.30;;
45344;SDS011;31078;48.304;11.896;2022-12-31T01:32:01;0.13;;;0.13;;
45344;SDS011;31078;48.304;11.896;2022-12-31T01:34:27;0.60;;;0.30;;
45344;SDS011;31078;48.304;11.896;2022-12-31T01:36:55;0.40;;;0.30;;
45344;SDS011;31078;48.304;11.896;2022-12-31T01:39:21;0.38;;;0.28;;
45344;SDS011;31078;48.304;11.896;2022-12-31T01:41:48;1.75;;;0.25;;
45344;SDS011;31078;48.304;11.896;2022-12-31T01:47:20;0.35;;;0.20;;
45344;SDS011;31078;48.304;11.896;2022-12-31T01:49:56;0.52;;;0.30;;
45344;SDS011;31078;48.304;11.896;2022-12-31T01:52:32;0.20;;;0.20;;
45344;SDS011;31078;48.304;11.896;2022-12-31T01:55:15;0.55;;;0.15;;
45344;SDS011;31078;48.304;11.896;2022-12-31T01:57:45;0.30;;;0.20;;
45344;SDS011;31078;48.304;11.896;2022-12-31T02:00:16;0.30;;;0.20;;
45344;SDS011;31078;48.304;11.896;2022-12-31T02:02:43;0.30;;;0.20;;
45344;SDS011;31078;48.304;11.896;2022-12-31T02:05:11;0.25;;;0.20;;
45344;SDS011;31078;48.304;11.896;2022-12-31T02:07:44;0.30;;;0.30;;
45344;SDS011;31078;48.304;11.896;2022-12-31T02:10:12;1.13;;;0.30;;
45344;SDS011;31078;48.304;11.896;2022-12-31T02:12:39;0.40;;;0.30;;
45344;SDS011;31078;48.304;11.896;2022-12-31T02:15:06;0.40;;;0.30;;
45344;SDS011;31078;48.304;11.896;2022-12-31T02:17:34;0.43;;;0.20;;
45344;SDS011;31078;48.304;11.896;2022-12-31T02:20:18;0.63;;;0.32;;
45344;SDS011;31078;48.304;11.896;2022-12-31T02:23:25;1.00;;;0.20;;
45344;SDS011;31078;48.304;11.896;2022-12-31T02:26:24;0.30;;;0.30;;
45344;SDS011;31078;48.304;11.896;2022-12-31T02:29:09;0.52;;;0.40;;
45344;SDS011;31078;48.304;11.896;2022-12-31T02:31:59;1.48;;;0.32;;
45344;SDS011;31078;48.304;11.896;2022-12-31T02:34:29;0.43;;;0.20;;
45344;SDS011;31078;48.304;11.896;2022-12-31T02:36:59;0.93;;;0.28;;
45344;SDS011;31078;48.304;11.896;2022-12-31T02:39:28;0.38;;;0.20;;
45344;SDS011;31078;48.304;11.896;2022-12-31T02:41:57;0.10;;;0.10;;
45344;SDS011;31078;48.304;11.896;2022-12-31T02:44:28;0.80;;;0.20;;
45344;SDS011;31078;48.304;11.896;2022-12-31T02:47:05;0.68;;;0.30;;
45344;SDS011;31078;48.304;11.896;2022-12-31T02:49:44;0.20;;;0.20;;
45344;SDS011;31078;48.304;11.896;2022-12-31T02:52:24;0.77;;;0.28;;
45344;SDS011;31078;48.304;11.896;2022-12-31T02:54:58;0.40;;;0.25;;
45344;SDS011;31078;48.304;11.896;2022-12-31T02:57:36;1.35;;;0.30;;
45344;SDS011;31078;48.304;11.896;2022-12-31T03:00:08;0.73;;;0.30;;
45344;SDS011;31078;48.304;11.896;2022-12-31T03:02:57;1.50;;;0.20;;
45344;SDS011;31078;48.304;11.896;2022-12-31T03:05:26;0.32;;;0.25;;
45344;SDS011;31078;48.304;11.896;2022-12-31T03:07:53;0.20;;;0.20;;
45344;SDS011;31078;48.304;11.896;2022-12-31T03:10:20;0.52;;;0.20;;
45344;SDS011;31078;48.304;11.896;2022-12-31T03:12:47;0.25;;;0.25;;
45344;SDS011;31078;48.304;11.896;2022-12-31T03:15:14;0.63;;;0.28;;
45344;SDS011;31078;48.304;11.896;2022-12-31T03:17:47;0.20;;;0.20;;
45344;SDS011;31078;48.304;11.896;2022-12-31T03:20:16;0.65;;;0.20;;
45344;SDS011;31078;48.304;11.896;2022-12-31T03:23:02;0.60;;;0.25;;
45344;SDS011;31078;48.304;11.896;2022-12-31T03:25:30;0.40;;;0.30;;
45344;SDS011;31078;48.304;11.896;2022-12-31T03:27:59;0.50;;;0.30;;
45344;SDS011;31078;48.304;11.896;2022-12-31T03:30:26;0.13;;;0.13;;
45344;SDS011;31078;48.304;11.896;2022-12-31T03:32:53;0.60;;;0.30;;
45344;SDS011;31078;48.304;11.896;2022-12-31T03:35:22;0.20;;;0.20;;
45344;SDS011;31078;48.304;11.896;2022-12-31T03:37:50;0.25;;;0.25;;
45344;SDS011;31078;48.304;11.896;2022-12-31T03:40:18;0.20;;;0.20;;
45344;SDS011;31078;48.304;11.896;2022-12-31T03:42:46;0.45;;;0.30;;
45344;SDS011;31078;48.304;11.896;2022-12-31T03:45:12;0.40;;;0.30;;
45344;SDS011;31078;48.304;11.896;2022-12-31T03:47:39;0.63;;;0.30;;
45344;SDS011;31078;48.304;11.896;2022-12-31T03:50:07;1.23;;;0.25;;
45344;SDS011;31078;48.304;11.896;2022-12-31T03:52:36;1.55;;;0.20;;
45344;SDS011;31078;48.304;11.896;2022-12-31T03:55:03;2.53;;;0.38;;
45344;SDS011;31078;48.304;11.896;2022-12-31T03:57:33;0.52;;;0.30;;
45344;SDS011;31078;48.304;11.896;2022-12-31T04:00:02;0.30;;;0.30;;
45344;SDS011;31078;48.304;11.896;2022-12-31T04:02:30;0.22;;;0.20;;
45344;SDS011;31078;48.304;11.896;2022-12-31T04:04:56;0.38;;;0.30;;
45344;SDS011;31078;48.304;11.896;2022-12-31T04:07:23;1.25;;;0.30;;
45344;SDS011;31078;48.304;11.896;2022-12-31T04:09:51;0.25;;;0.20;;
45344;SDS011;31078;48.304;11.896;2022-12-31T04:12:17;0.10;;;0.10;;
45344;SDS011;31078;48.304;11.896;2022-12-31T04:14:43;0.57;;;0.30;;
45344;SDS011;31078;48.304;11.896;2022-12-31T04:17:10;0.30;;;0.15;;
45344;SDS011;31078;48.304;11.896;2022-12-31T04:19:37;0.32;;;0.30;;
45344;SDS011;31078;48.304;11.896;2022-12-31T04:22:03;0.20;;;0.20;;
45344;SDS011;31078;48.304;11.896;2022-12-31T04:24:30;0.10;;;0.10;;
45344;SDS011;31078;48.304;11.896;2022-12-31T04:26:58;0.43;;;0.30;;
45344;SDS011;31078;48.304;11.896;2022-12-31T04:29:24;0.30;;;0.30;;
45344;SDS011;31078;48.304;11.896;2022-12-31T04:31:51;0.43;;;0.20;;
45344;SDS011;31078;48.304;11.896;2022-12-31T04:34:17;0.20;;;0.15;;
45344;SDS011;31078;48.304;11.896;2022-12-31T04:36:44;0.28;;;0.28;;
45344;SDS011;31078;48.304;11.896;2022-12-31T04:39:10;0.20;;;0.20;;
45344;SDS011;31078;48.304;11.896;2022-12-31T04:41:37;0.63;;;0.38;;
45344;SDS011;31078;48.304;11.896;2022-12-31T04:44:05;0.20;;;0.20;;
45344;SDS011;31078;48.304;11.896;2022-12-31T04:46:32;0.28;;;0.28;;
45344;SDS011;31078;48.304;11.896;2022-12-31T04:48:59;0.52;;;0.20;;
45344;SDS011;31078;48.304;11.896;2022-12-31T04:51:26;0.22;;;0.20;;
45344;SDS011;31078;48.304;11.896;2022-12-31T04:53:54;0.90;;;0.30;;
45344;SDS011;31078;48.304;11.896;2022-12-31T04:56:21;0.28;;;0.28;;
45344;SDS011;31078;48.304;11.896;2022-12-31T04:58:47;0.68;;;0.60;;
45344;SDS011;31078;48.304;11.896;2022-12-31T05:01:15;8.77;;;1.30;;
45344;SDS011;31078;48.304;11.896;2022-12-31T05:03:41;7.78;;;1.52;;
45344;SDS011;31078;48.304;11.896;2022-12-31T05:06:10;5.25;;;1.20;;
45344;SDS011;31078;48.304;11.896;2022-12-31T05:08:38;4.38;;;1.23;;
45344;SDS011;31078;48.304;11.896;2022-12-31T05:11:04;2.97;;;1.02;;
45344;SDS011;31078;48.304;11.896;2022-12-31T05:13:31;3.88;;;1.05;;
45344;SDS011;31078;48.304;11.896;2022-12-31T05:15:58;4.82;;;1.13;;
45344;SDS011;31078;48.304;11.896;2022-12-31T05:18:26;6.32;;;1.40;;
45344;SDS011;31078;48.304;11.896;2022-12-31T05:20:53;4.25;;;0.90;;
45344;SDS011;31078;48.304;11.896;2022-12-31T05:23:19;1.00;;;0.50;;
45344;SDS011;31078;48.304;11.896;2022-12-31T05:25:47;3.13;;;1.20;;
45344;SDS011;31078;48.304;11.896;2022-12-31T05:28:14;4.00;;;0.90;;
45344;SDS011;31078;48.304;11.896;2022-12-31T05:30:41;7.00;;;1.50;;
45344;SDS011;31078;48.304;11.896;2022-12-31T05:33:08;4.07;;;1.00;;
45344;SDS011;31078;48.304;11.896;2022-12-31T05:35:36;5.22;;;1.20;;
45344;SDS011;31078;48.304;11.896;2022-12-31T05:38:03;1.17;;;0.40;;
45344;SDS011;31078;48.304;11.896;2022-12-31T05:40:29;1.08;;;0.57;;
45344;SDS011;31078;48.304;11.896;2022-12-31T05:42:56;3.08;;;0.75;;
45344;SDS011;31078;48.304;11.896;2022-12-31T05:45:22;5.10;;;1.00;;
45344;SDS011;31078;48.304;11.896;2022-12-31T05:47:49;5.88;;;1.30;;
45344;SDS011;31078;48.304;11.896;2022-12-31T05:50:15;4.70;;;1.15;;
45344;SDS011;31078;48.304;11.896;2022-12-31T05:52:43;5.78;;;1.20;;
45344;SDS011;31078;48.304;11.896;2022-12-31T05:55:11;6.20;;;1.50;;
45344;SDS011;31078;48.304;11.896;2022-12-31T05:57:38;5.43;;;1.23;;
45344;SDS011;31078;48.304;11.896;2022-12-31T06:00:05;6.60;;;1.48;;
45344;SDS011;31078;48.304;11.896;2022-12-31T06:02:33;11.70;;;2.35;;
45344;SDS011;31078;48.304;11.896;2022-12-31T06:05:00;8.90;;;1.90;;
45344;SDS011;31078;48.304;11.896;2022-12-31T06:07:27;5.60;;;1.25;;
45344;SDS011;31078;48.304;11.896;2022-12-31T06:09:55;8.23;;;1.40;;
45344;SDS011;31078;48.304;11.896;2022-12-31T06:12:21;5.07;;;1.25;;
45344;SDS011;31078;48.304;11.896;2022-12-31T06:14:47;7.68;;;1.80;;
45344;SDS011;31078;48.304;11.896;2022-12-31T06:17:14;6.05;;;1.48;;
45344;SDS011;31078;48.304;11.896;2022-12-31T06:19:40;7.45;;;1.63;;
45344;SDS011;31078;48.304;11.896;2022-12-31T06:22:07;8.98;;;1.65;;
45344;SDS011;31078;48.304;11.896;2022-12-31T06:24:33;8.70;;;1.90;;
45344;SDS011;31078;48.304;11.896;2022-12-31T06:27:01;4.18;;;1.00;;
45344;SDS011;31078;48.304;11.896;2022-12-31T06:29:28;5.00;;;1.13;;
45344;SDS011;31078;48.304;11.896;2022-12-31T06:31:54;0.40;;;0.35;;
45344;SDS011;31078;48.304;11.896;2022-12-31T06:34:21;1.00;;;0.40;;
45344;SDS011;31078;48.304;11.896;2022-12-31T06:36:47;0.30;;;0.30;;
45344;SDS011;31078;48.304;11.896;2022-12-31T06:39:14;0.40;;;0.30;;
45344;SDS011;31078;48.304;11.896;2022-12-31T06:41:40;0.30;;;0.30;;
45344;SDS011;31078;48.304;11.896;2022-12-31T06:44:08;0.20;;;0.20;;
45344;SDS011;31078;48.304;11.896;2022-12-31T06:46:34;1.48;;;0.20;;
45344;SDS011;31078;48.304;11.896;2022-12-31T06:49:01;0.30;;;0.30;;
45344;SDS011;31078;48.304;11.896;2022-12-31T06:51:27;0.63;;;0.35;;
45344;SDS011;31078;48.304;11.896;2022-12-31T06:53:54;0.30;;;0.30;;
45344;SDS011;31078;48.304;11.896;2022-12-31T06:56:21;0.20;;;0.20;;
45344;SDS011;31078;48.304;11.896;2022-12-31T06:58:50;2.05;;;0.40;;
45344;SDS011;31078;48.304;11.896;2022-12-31T07:01:26;0.82;;;0.50;;
45344;SDS011;31078;48.304;11.896;2022-12-31T07:03:59;0.75;;;0.25;;
45344;SDS011;31078;48.304;11.896;2022-12-31T07:06:34;0.57;;;0.40;;
45344;SDS011;31078;48.304;11.896;2022-12-31T07:09:08;0.20;;;0.20;;
45344;SDS011;31078;48.304;11.896;2022-12-31T07:11:42;0.22;;;0.22;;
45344;SDS011;31078;48.304;11.896;2022-12-31T07:14:21;0.52;;;0.35;;
45344;SDS011;31078;48.304;11.896;2022-12-31T07:16:57;1.10;;;0.50;;
45344;SDS011;31078;48.304;11.896;2022-12-31T07:19:39;0.70;;;0.50;;
45344;SDS011;31078;48.304;11.896;2022-12-31T07:22:14;0.40;;;0.40;;
45344;SDS011;31078;48.304;11.896;2022-12-31T07:24:42;0.75;;;0.40;;
45344;SDS011;31078;48.304;11.896;2022-12-31T07:27:27;1.73;;;0.60;;
45344;SDS011;31078;48.304;11.896;2022-12-31T07:30:08;0.93;;;0.40;;
45344;SDS011;31078;48.304;11.896;2022-12-31T07:32:43;1.10;;;0.40;;
45344;SDS011;31078;48.304;11.896;2022-12-31T07:35:28;0.50;;;0.38;;
45344;SDS011;31078;48.304;11.896;2022-12-31T07:38:01;2.15;;;0.65;;
45344;SDS011;31078;48.304;11.896;2022-12-31T07:40:41;6.18;;;1.80;;
45344;SDS011;31078;48.304;11.896;2022-12-31T07:43:21;7.90;;;1.60;;
45344;SDS011;31078;48.304;11.896;2022-12-31T07:45:57;7.00;;;1.55;;
45344;SDS011;31078;48.304;11.896;2022-12-31T07:48:32;1.13;;;0.80;;
45344;SDS011;31078;48.304;11.896;2022-12-31T07:50:59;5.85;;;1.42;;
45344;SDS011;31078;48.304;11.896;2022-12-31T07:53:26;5.50;;;1.30;;
45344;SDS011;31078;48.304;11.896;2022-12-31T07:55:54;7.00;;;1.50;;
45344;SDS011;31078;48.304;11.896;2022-12-31T07:58:22;7.45;;;1.48;;
45344;SDS011;31078;48.304;11.896;2022-12-31T08:00:53;6.55;;;1.60;;
45344;SDS011;31078;48.304;11.896;2022-12-31T08:03:26;8.95;;;1.90;;
45344;SDS011;31078;48.304;11.896;2022-12-31T08:06:09;7.20;;;1.95;;
45344;SDS011;31078;48.304;11.896;2022-12-31T08:08:43;8.57;;;2.13;;
45344;SDS011;31078;48.304;11.896;2022-12-31T08:11:16;5.55;;;1.80;;
45344;SDS011;31078;48.304;11.896;2022-12-31T08:13:50;6.05;;;1.63;;
45344;SDS011;31078;48.304;11.896;2022-12-31T08:16:20;14.23;;;5.47;;
45344;SDS011;31078;48.304;11.896;2022-12-31T08:18:48;9.35;;;3.53;;
45344;SDS011;31078;48.304;11.896;2022-12-31T08:21:18;8.95;;;3.13;;
45344;SDS011;31078;48.304;11.896;2022-12-31T08:23:58;7.03;;;2.30;;
45344;SDS011;31078;48.304;11.896;2022-12-31T08:26:35;14.13;;;5.10;;
45344;SDS011;31078;48.304;11.896;2022-12-31T08:29:06;6.95;;;2.65;;
45344;SDS011;31078;48.304;11.896;2022-12-31T08:31:48;6.57;;;2.05;;
45344;SDS011;31078;48.304;11.896;2022-12-31T08:34:25;1.63;;;1.00;;
45344;SDS011;31078;48.304;11.896;2022-12-31T08:36:59;7.05;;;2.03;;
45344;SDS011;31078;48.304;11.896;2022-12-31T08:39:34;6.07;;;1.75;;
45344;SDS011;31078;48.304;11.896;2022-12-31T08:42:13;4.75;;;1.58;;
45344;SDS011;31078;48.304;11.896;2022-12-31T08:44:49;6.80;;;2.13;;
45344;SDS011;31078;48.304;11.896;2022-12-31T08:47:25;4.47;;;1.30;;
45344;SDS011;31078;48.304;11.896;2022-12-31T08:50:02;5.50;;;1.60;;
45344;SDS011;31078;48.304;11.896;2022-12-31T08:52:29;1.02;;;0.70;;
45344;SDS011;31078;48.304;11.896;2022-12-31T08:54:56;1.50;;;0.60;;
45344;SDS011;31078;48.304;11.896;2022-12-31T08:57:25;1.35;;;0.75;;
45344;SDS011;31078;48.304;11.896;2022-12-31T09:00:01;2.08;;;0.90;;
45344;SDS011;31078;48.304;11.896;2022-12-31T09:02:38;1.10;;;0.80;;
45344;SDS011;31078;48.304;11.896;2022-12-31T09:05:18;1.58;;;1.00;;
45344;SDS011;31078;48.304;11.896;2022-12-31T09:07:50;1.73;;;0.90;;
45344;SDS011;31078;48.304;11.896;2022-12-31T09:10:28;3.22;;;1.00;;
45344;SDS011;31078;48.304;11.896;2022-12-31T09:13:01;1.80;;;0.80;;
45344;SDS011;31078;48.304;11.896;2022-12-31T09:15:38;1.35;;;0.88;;
45344;SDS011;31078;48.304;11.896;2022-12-31T09:18:08;2.35;;;1.30;;
45344;SDS011;31078;48.304;11.896;2022-12-31T09:20:38;1.58;;;0.50;;
45344;SDS011;31078;48.304;11.896;2022-12-31T09:23:06;1.95;;;0.90;;
45344;SDS011;31078;48.304;11.896;2022-12-31T09:25:33;1.42;;;0.73;;
45344;SDS011;31078;48.304;11.896;2022-12-31T09:28:10;1.48;;;0.95;;
45344;SDS011;31078;48.304;11.896;2022-12-31T09:30:42;0.82;;;0.40;;
45344;SDS011;31078;48.304;11.896;2022-12-31T09:33:16;0.85;;;0.30;;
45344;SDS011;31078;48.304;11.896;2022-12-31T09:35:55;0.68;;;0.52;;
45344;SDS011;31078;48.304;11.896;2022-12-31T09:38:26;2.00;;;0.90;;
45344;SDS011;31078;48.304;11.896;2022-12-31T09:41:07;0.70;;;0.50;;
45344;SDS011;31078;48.304;11.896;2022-12-31T09:46:48;1.40;;;0.88;;
45344;SDS011;31078;48.304;11.896;2022-12-31T09:49:47;2.10;;;0.60;;
45344;SDS011;31078;48.304;11.896;2022-12-31T09:52:34;1.52;;;0.82;;
45344;SDS011;31078;48.304;11.896;2022-12-31T09:55:22;1.60;;;0.70;;
45344;SDS011;31078;48.304;11.896;2022-12-31T09:58:00;0.93;;;0.50;;
45344;SDS011;31078;48.304;11.896;2022-12-31T10:00:38;4.35;;;0.80;;
45344;SDS011;31078;48.304;11.896;2022-12-31T10:03:15;3.33;;;0.80;;
45344;SDS011;31078;48.304;11.896;2022-12-31T10:06:10;1.75;;;0.60;;
45344;SDS011;31078;48.304;11.896;2022-12-31T10:09:06;1.40;;;0.55;;
45344;SDS011;31078;48.304;11.896;2022-12-31T10:12:00;1.38;;;0.70;;
45344;SDS011;31078;48.304;11.896;2022-12-31T10:14:41;0.47;;;0.38;;
45344;SDS011;31078;48.304;11.896;2022-12-31T10:17:27;0.80;;;0.60;;
45344;SDS011;31078;48.304;11.896;2022-12-31T10:20:13;1.83;;;0.50;;
45344;SDS011;31078;48.304;11.896;2022-12-31T10:22:53;1.17;;;0.60;;
45344;SDS011;31078;48.304;11.896;2022-12-31T10:25:42;2.58;;;1.02;;
45344;SDS011;31078;48.304;11.896;2022-12-31T10:28:22;3.30;;;1.05;;
45344;SDS011;31078;48.304;11.896;2022-12-31T10:30:59;2.63;;;0.95;;
45344;SDS011;31078;48.304;11.896;2022-12-31T10:33:38;1.30;;;1.00;;
45344;SDS011;31078;48.304;11.896;2022-12-31T10:36:08;0.95;;;0.80;;
45344;SDS011;31078;48.304;11.896;2022-12-31T10:38:46;3.25;;;1.30;;
45344;SDS011;31078;48.304;11.896;2022-12-31T10:44:28;2.65;;;1.15;;
45344;SDS011;31078;48.304;11.896;2022-12-31T10:50:37;5.85;;;1.70;;
45344;SDS011;31078;48.304;11.896;2022-12-31T10:56:31;4.53;;;2.30;;
45344;SDS011;31078;48.304;11.896;2022-12-31T11:02:30;4.57;;;2.95;;
45344;SDS011;31078;48.304;11.896;2022-12-31T11:11:48;6.07;;;1.20;;
45344;SDS011;31078;48.304;11.896;2022-12-31T11:17:20;3.22;;;1.50;;
45344;SDS011;31078;48.304;11.896;2022-12-31T11:19:59;2.42;;;1.40;;
45344;SDS011;31078;48.304;11.896;2022-12-31T11:22:39;1.90;;;1.17;;
45344;SDS011;31078;48.304;11.896;2022-12-31T11:25:22;3.45;;;1.63;;
45344;SDS011;31078;48.304;11.896;2022-12-31T11:28:03;2.55;;;1.27;;
45344;SDS011;31078;48.304;11.896;2022-12-31T11:30:48;3.15;;;1.40;;
45344;SDS011;31078;48.304;11.896;2022-12-31T11:33:30;2.60;;;1.35;;
45344;SDS011;31078;48.304;11.896;2022-12-31T11:36:10;3.78;;;1.70;;
45344;SDS011;31078;48.304;11.896;2022-12-31T11:38:45;3.50;;;1.92;;
45344;SDS011;31078;48.304;11.896;2022-12-31T11:41:18;3.50;;;1.95;;
45344;SDS011;31078;48.304;11.896;2022-12-31T11:43:54;3.20;;;1.67;;
45344;SDS011;31078;48.304;11.896;2022-12-31T11:46:46;3.78;;;1.73;;
45344;SDS011;31078;48.304;11.896;2022-12-31T11:49:25;3.40;;;1.70;;
45344;SDS011;31078;48.304;11.896;2022-12-31T11:52:18;4.20;;;1.63;;
45344;SDS011;31078;48.304;11.896;2022-12-31T11:55:01;4.07;;;1.70;;
45344;SDS011;31078;48.304;11.896;2022-12-31T11:57:45;5.80;;;1.80;;
45344;SDS011;31078;48.304;11.896;2022-12-31T12:00:15;3.85;;;1.98;;
45344;SDS011;31078;48.304;11.896;2022-12-31T12:02:45;4.55;;;2.17;;
45344;SDS011;31078;48.304;11.896;2022-12-31T12:05:15;6.32;;;2.25;;
45344;SDS011;31078;48.304;11.896;2022-12-31T12:07:45;3.90;;;1.80;;
45344;SDS011;31078;48.304;11.896;2022-12-31T12:10:16;3.42;;;1.50;;
45344;SDS011;31078;48.304;11.896;2022-12-31T12:12:48;3.20;;;1.90;;
45344;SDS011;31078;48.304;11.896;2022-12-31T12:15:17;4.70;;;1.80;;
45344;SDS011;31078;48.304;11.896;2022-12-31T12:17:48;2.92;;;1.50;;
45344;SDS011;31078;48.304;11.896;2022-12-31T12:20:19;3.88;;;1.40;;
45344;SDS011;31078;48.304;11.896;2022-12-31T12:22:54;5.10;;;1.92;;
45344;SDS011;31078;48.304;11.896;2022-12-31T12:25:23;9.45;;;4.55;;
45344;SDS011;31078;48.304;11.896;2022-12-31T12:27:51;5.13;;;2.33;;
45344;SDS011;31078;48.304;11.896;2022-12-31T12:30:18;4.80;;;2.33;;
45344;SDS011;31078;48.304;11.896;2022-12-31T12:32:51;4.88;;;2.60;;
45344;SDS011;31078;48.304;11.896;2022-12-31T12:35:22;4.30;;;2.40;;
45344;SDS011;31078;48.304;11.896;2022-12-31T12:37:59;6.38;;;2.50;;
45344;SDS011;31078;48.304;11.896;2022-12-31T12:40:27;8.75;;;2.40;;
45344;SDS011;31078;48.304;11.896;2022-12-31T12:42:54;5.70;;;2.10;;
45344;SDS011;31078;48.304;11.896;2022-12-31T12:45:21;3.00;;;1.58;;
45344;SDS011;31078;48.304;11.896;2022-12-31T12:47:49;3.10;;;1.65;;
45344;SDS011;31078;48.304;11.896;2022-12-31T12:50:20;3.63;;;1.88;;
45344;SDS011;31078;48.304;11.896;2022-12-31T12:53:04;3.05;;;1.85;;
45344;SDS011;31078;48.304;11.896;2022-12-31T12:55:39;3.70;;;1.80;;
45344;SDS011;31078;48.304;11.896;2022-12-31T12:58:16;2.80;;;1.50;;
45344;SDS011;31078;48.304;11.896;2022-12-31T13:01:00;3.78;;;1.50;;
45344;SDS011;31078;48.304;11.896;2022-12-31T13:03:36;3.78;;;1.77;;
45344;SDS011;31078;48.304;11.896;2022-12-31T13:06:23;2.80;;;1.70;;
45344;SDS011;31078;48.304;11.896;2022-12-31T13:09:05;3.22;;;1.70;;
45344;SDS011;31078;48.304;11.896;2022-12-31T13:11:47;2.67;;;1.67;;
45344;SDS011;31078;48.304;11.896;2022-12-31T13:14:26;3.60;;;1.30;;
45344;SDS011;31078;48.304;11.896;2022-12-31T13:16:58;3.53;;;1.50;;
45344;SDS011;31078;48.304;11.896;2022-12-31T13:19:33;2.78;;;1.40;;
45344;SDS011;31078;48.304;11.896;2022-12-31T13:22:07;2.70;;;1.48;;
45344;SDS011;31078;48.304;11.896;2022-12-31T13:24:46;4.22;;;1.40;;
45344;SDS011;31078;48.304;11.896;2022-12-31T13:27:23;1.63;;;1.27;;
45344;SDS011;31078;48.304;11.896;2022-12-31T13:29:54;3.38;;;1.70;;
45344;SDS011;31078;48.304;11.896;2022-12-31T13:32:26;4.25;;;1.85;;
45344;SDS011;31078;48.304;11.896;2022-12-31T13:35:04;3.92;;;1.90;;
45344;SDS011;31078;48.304;11.896;2022-12-31T13:37:43;3.33;;;1.40;;
45344;SDS011;31078;48.304;11.896;2022-12-31T13:40:17;3.22;;;1.30;;
45344;SDS011;31078;48.304;11.896;2022-12-31T13:42:50;1.80;;;1.10;;
45344;SDS011;31078;48.304;11.896;2022-12-31T13:45:21;3.28;;;1.27;;
45344;SDS011;31078;48.304;11.896;2022-12-31T13:47:53;4.17;;;2.67;;
45344;SDS011;31078;48.304;11.896;2022-12-31T13:50:25;4.60;;;2.53;;
45344;SDS011;31078;48.304;11.896;2022-12-31T13:52:56;3.50;;;1.70;;
45344;SDS011;31078;48.304;11.896;2022-12-31T13:55:31;3.08;;;1.42;;
45344;SDS011;31078;48.304;11.896;2022-12-31T13:58:03;2.95;;;1.30;;
45344;SDS011;31078;48.304;11.896;2022-12-31T14:00:35;3.25;;;1.50;;
45344;SDS011;31078;48.304;11.896;2022-12-31T14:03:09;2.10;;;1.30;;
45344;SDS011;31078;48.304;11.896;2022-12-31T14:05:42;3.00;;;1.48;;
45344;SDS011;31078;48.304;11.896;2022-12-31T14:08:17;5.00;;;1.40;;
45344;SDS011;31078;48.304;11.896;2022-12-31T14:10:48;2.25;;;1.25;;
45344;SDS011;31078;48.304;11.896;2022-12-31T14:13:26;1.85;;;1.10;;
45344;SDS011;31078;48.304;11.896;2022-12-31T14:16:03;1.63;;;1.10;;
45344;SDS011;31078;48.304;11.896;2022-12-31T14:18:40;2.15;;;1.30;;
45344;SDS011;31078;48.304;11.896;2022-12-31T14:21:13;2.53;;;1.60;;
45344;SDS011;31078;48.304;11.896;2022-12-31T14:23:45;3.83;;;2.15;;
45344;SDS011;31078;48.304;11.896;2022-12-31T14:26:20;4.10;;;1.70;;
45344;SDS011;31078;48.304;11.896;2022-12-31T14:28:55;4.10;;;1.60;;
45344;SDS011;31078;48.304;11.896;2022-12-31T14:31:31;3.03;;;1.70;;
45344;SDS011;31078;48.304;11.896;2022-12-31T14:34:17;2.53;;;1.83;;
45344;SDS011;31078;48.304;11.896;2022-12-31T14:36:51;4.60;;;1.95;;
45344;SDS011;31078;48.304;11.896;2022-12-31T14:39:28;4.22;;;1.77;;
45344;SDS011;31078;48.304;11.896;2022-12-31T14:42:11;4.05;;;1.95;;
45344;SDS011;31078;48.304;11.896;2022-12-31T14:44:49;3.60;;;1.83;;
45344;SDS011;31078;48.304;11.896;2022-12-31T14:47:30;4.50;;;2.00;;
45344;SDS011;31078;48.304;11.896;2022-12-31T14:50:08;4.90;;;2.47;;
45344;SDS011;31078;48.304;11.896;2022-12-31T14:52:47;5.40;;;2.95;;
45344;SDS011;31078;48.304;11.896;2022-12-31T14:55:23;8.75;;;3.03;;
45344;SDS011;31078;48.304;11.896;2022-12-31T14:57:54;8.13;;;3.25;;
45344;SDS011;31078;48.304;11.896;2022-12-31T15:00:29;9.88;;;3.38;;
45344;SDS011;31078;48.304;11.896;2022-12-31T15:02:58;8.07;;;3.55;;
45344;SDS011;31078;48.304;11.896;2022-12-31T15:05:27;8.90;;;3.72;;
45344;SDS011;31078;48.304;11.896;2022-12-31T15:08:01;7.55;;;3.30;;
45344;SDS011;31078;48.304;11.896;2022-12-31T15:10:41;6.80;;;3.50;;
45344;SDS011;31078;48.304;11.896;2022-12-31T15:13:19;10.15;;;3.78;;
45344;SDS011;31078;48.304;11.896;2022-12-31T15:16:06;7.40;;;3.63;;
45344;SDS011;31078;48.304;11.896;2022-12-31T15:18:55;12.00;;;4.03;;
45344;SDS011;31078;48.304;11.896;2022-12-31T15:21:45;7.75;;;3.80;;
45344;SDS011;31078;48.304;11.896;2022-12-31T15:24:22;8.25;;;4.22;;
45344;SDS011;31078;48.304;11.896;2022-12-31T15:26:51;9.15;;;4.50;;
45344;SDS011;31078;48.304;11.896;2022-12-31T15:29:25;10.93;;;4.53;;
45344;SDS011;31078;48.304;11.896;2022-12-31T15:31:54;12.80;;;5.72;;
45344;SDS011;31078;48.304;11.896;2022-12-31T15:34:24;10.95;;;5.28;;